sensor_id;sensor_type;location;lat;lon;timestamp;P1;durP1;ratioP1;P2;durP2;ratioP2
38865;SDS011;62686;48.984;8.394;2023-03-01T00:01:22;14.57;;;11.67;;
38865;SDS011;62686;48.984;8.394;2023-03-01T00:03:52;16.13;;;11.60;;
38865;SDS011;62686;48.984;8.394;2023-03-01T00:06:22;15.60;;;11.93;;
38865;SDS011;62686;48.984;8.394;2023-03-01T00:08:51;17.83;;;11.93;;
38865;SDS011;62686;48.984;8.394;2023-03-01T00:11:20;17.00;;;11.63;;
38865;SDS011;62686;48.984;8.394;2023-03-01T00:13:50;19.47;;;13.07;;
38865;SDS011;62686;48.984;8.394;2023-03-01T00:16:21;17.63;;;11.83;;
38865;SDS011;62686;48.984;8.394;2023-03-01T00:18:50;18.63;;;13.07;;
38865;SDS011;62686;48.984;8.394;2023-03-01T00:21:19;16.23;;;12.23;;
38865;SDS011;62686;48.984;8.394;2023-03-01T00:23:48;19.03;;;12.63;;
38865;SDS011;62686;48.984;8.394;2023-03-01T00:26:18;18.23;;;12.03;;
38865;SDS011;62686;48.984;8.394;2023-03-01T00:28:48;18.33;;;12.73;;
38865;SDS011;62686;48.984;8.394;2023-03-01T00:31:17;18.93;;;12.60;;
38865;SDS011;62686;48.984;8.394;2023-03-01T00:33:47;17.70;;;12.23;;
38865;SDS011;62686;48.984;8.394;2023-03-01T00:36:15;18.33;;;12.67;;
38865;SDS011;62686;48.984;8.394;2023-03-01T00:38:44;18.33;;;12.43;;
38865;SDS011;62686;48.984;8.394;2023-03-01T00:41:14;17.83;;;12.13;;
38865;SDS011;62686;48.984;8.394;2023-03-01T00:43:45;18.07;;;13.17;;
38865;SDS011;62686;48.984;8.394;2023-03-01T00:46:14;17.37;;;12.27;;
38865;SDS011;62686;48.984;8.394;2023-03-01T00:48:46;15.23;;;11.50;;
38865;SDS011;62686;48.984;8.394;2023-03-01T00:51:15;16.87;;;12.23;;
38865;SDS011;62686;48.984;8.394;2023-03-01T00:53:45;16.63;;;12.63;;
38865;SDS011;62686;48.984;8.394;2023-03-01T00:56:13;17.60;;;12.13;;
38865;SDS011;62686;48.984;8.394;2023-03-01T00:58:43;16.97;;;12.70;;
38865;SDS011;62686;48.984;8.394;2023-03-01T01:01:13;18.47;;;12.50;;
38865;SDS011;62686;48.984;8.394;2023-03-01T01:03:45;16.53;;;12.93;;
38865;SDS011;62686;48.984;8.394;2023-03-01T01:06:17;17.37;;;12.37;;
38865;SDS011;62686;48.984;8.394;2023-03-01T01:08:48;22.27;;;13.73;;
38865;SDS011;62686;48.984;8.394;2023-03-01T01:11:17;17.60;;;13.03;;
38865;SDS011;62686;48.984;8.394;2023-03-01T01:13:46;18.70;;;13.37;;
38865;SDS011;62686;48.984;8.394;2023-03-01T01:16:16;17.33;;;12.57;;
38865;SDS011;62686;48.984;8.394;2023-03-01T01:18:46;18.00;;;12.97;;
38865;SDS011;62686;48.984;8.394;2023-03-01T01:21:15;17.10;;;12.57;;
38865;SDS011;62686;48.984;8.394;2023-03-01T01:23:46;16.03;;;12.47;;
38865;SDS011;62686;48.984;8.394;2023-03-01T01:26:15;19.77;;;13.67;;
38865;SDS011;62686;48.984;8.394;2023-03-01T01:28:45;17.20;;;13.27;;
38865;SDS011;62686;48.984;8.394;2023-03-01T01:31:15;18.83;;;13.87;;
38865;SDS011;62686;48.984;8.394;2023-03-01T01:33:44;19.97;;;13.70;;
38865;SDS011;62686;48.984;8.394;2023-03-01T01:36:13;19.90;;;13.57;;
38865;SDS011;62686;48.984;8.394;2023-03-01T01:38:41;17.60;;;12.77;;
38865;SDS011;62686;48.984;8.394;2023-03-01T01:41:10;17.80;;;13.17;;
38865;SDS011;62686;48.984;8.394;2023-03-01T01:43:40;17.43;;;13.17;;
38865;SDS011;62686;48.984;8.394;2023-03-01T01:46:13;18.87;;;13.00;;
38865;SDS011;62686;48.984;8.394;2023-03-01T01:48:49;17.70;;;13.03;;
38865;SDS011;62686;48.984;8.394;2023-03-01T01:51:23;22.97;;;14.20;;
38865;SDS011;62686;48.984;8.394;2023-03-01T01:53:56;24.57;;;14.73;;
38865;SDS011;62686;48.984;8.394;2023-03-01T01:56:27;19.33;;;14.37;;
38865;SDS011;62686;48.984;8.394;2023-03-01T01:58:57;20.47;;;13.93;;
38865;SDS011;62686;48.984;8.394;2023-03-01T02:01:27;18.53;;;14.60;;
38865;SDS011;62686;48.984;8.394;2023-03-01T02:03:55;21.87;;;15.37;;
38865;SDS011;62686;48.984;8.394;2023-03-01T02:06:26;22.97;;;14.37;;
38865;SDS011;62686;48.984;8.394;2023-03-01T02:08:59;18.47;;;13.97;;
38865;SDS011;62686;48.984;8.394;2023-03-01T02:11:30;21.67;;;14.83;;
38865;SDS011;62686;48.984;8.394;2023-03-01T02:13:59;18.37;;;13.00;;
38865;SDS011;62686;48.984;8.394;2023-03-01T02:16:29;17.73;;;13.10;;
38865;SDS011;62686;48.984;8.394;2023-03-01T02:18:58;18.47;;;14.40;;
38865;SDS011;62686;48.984;8.394;2023-03-01T02:21:30;21.17;;;14.80;;
38865;SDS011;62686;48.984;8.394;2023-03-01T02:24:08;18.23;;;13.33;;
38865;SDS011;62686;48.984;8.394;2023-03-01T02:26:47;19.57;;;13.37;;
38865;SDS011;62686;48.984;8.394;2023-03-01T02:29:20;20.30;;;12.57;;
38865;SDS011;62686;48.984;8.394;2023-03-01T02:31:48;20.63;;;13.90;;
38865;SDS011;62686;48.984;8.394;2023-03-01T02:34:18;19.63;;;14.37;;
38865;SDS011;62686;48.984;8.394;2023-03-01T02:36:49;20.07;;;14.97;;
38865;SDS011;62686;48.984;8.394;2023-03-01T02:39:22;21.13;;;14.83;;
38865;SDS011;62686;48.984;8.394;2023-03-01T02:41:54;22.13;;;14.63;;
38865;SDS011;62686;48.984;8.394;2023-03-01T02:44:26;18.47;;;14.03;;
38865;SDS011;62686;48.984;8.394;2023-03-01T02:46:55;20.20;;;14.50;;
38865;SDS011;62686;48.984;8.394;2023-03-01T02:49:24;20.63;;;14.23;;
38865;SDS011;62686;48.984;8.394;2023-03-01T02:54:58;17.83;;;13.60;;
38865;SDS011;62686;48.984;8.394;2023-03-01T02:57:31;19.67;;;14.40;;
38865;SDS011;62686;48.984;8.394;2023-03-01T03:00:03;20.57;;;14.93;;
38865;SDS011;62686;48.984;8.394;2023-03-01T03:02:34;20.17;;;14.83;;
38865;SDS011;62686;48.984;8.394;2023-03-01T03:05:04;21.97;;;14.87;;
38865;SDS011;62686;48.984;8.394;2023-03-01T03:07:36;21.37;;;15.07;;
38865;SDS011;62686;48.984;8.394;2023-03-01T03:10:07;22.87;;;15.83;;
38865;SDS011;62686;48.984;8.394;2023-03-01T03:12:38;20.77;;;14.87;;
38865;SDS011;62686;48.984;8.394;2023-03-01T03:15:09;24.67;;;16.50;;
38865;SDS011;62686;48.984;8.394;2023-03-01T03:17:39;21.27;;;15.10;;
38865;SDS011;62686;48.984;8.394;2023-03-01T03:20:11;23.00;;;14.93;;
38865;SDS011;62686;48.984;8.394;2023-03-01T03:22:45;21.57;;;14.97;;
38865;SDS011;62686;48.984;8.394;2023-03-01T03:25:14;23.77;;;15.63;;
38865;SDS011;62686;48.984;8.394;2023-03-01T03:27:43;22.10;;;15.73;;
38865;SDS011;62686;48.984;8.394;2023-03-01T03:30:15;20.20;;;15.50;;
38865;SDS011;62686;48.984;8.394;2023-03-01T03:32:45;21.20;;;16.03;;
38865;SDS011;62686;48.984;8.394;2023-03-01T03:35:19;20.17;;;15.30;;
38865;SDS011;62686;48.984;8.394;2023-03-01T03:37:48;22.47;;;15.87;;
38865;SDS011;62686;48.984;8.394;2023-03-01T03:40:29;22.53;;;16.30;;
38865;SDS011;62686;48.984;8.394;2023-03-01T03:42:59;22.27;;;15.67;;
38865;SDS011;62686;48.984;8.394;2023-03-01T03:45:29;22.53;;;15.87;;
38865;SDS011;62686;48.984;8.394;2023-03-01T03:47:59;24.17;;;16.60;;
38865;SDS011;62686;48.984;8.394;2023-03-01T03:50:27;24.93;;;16.40;;
38865;SDS011;62686;48.984;8.394;2023-03-01T03:52:56;22.57;;;16.80;;
38865;SDS011;62686;48.984;8.394;2023-03-01T03:55:24;23.30;;;15.83;;
38865;SDS011;62686;48.984;8.394;2023-03-01T03:57:57;23.00;;;15.80;;
38865;SDS011;62686;48.984;8.394;2023-03-01T04:00:29;24.37;;;16.50;;
38865;SDS011;62686;48.984;8.394;2023-03-01T04:02:58;24.23;;;16.90;;
38865;SDS011;62686;48.984;8.394;2023-03-01T04:05:27;26.40;;;17.33;;
38865;SDS011;62686;48.984;8.394;2023-03-01T04:07:55;22.77;;;16.57;;
38865;SDS011;62686;48.984;8.394;2023-03-01T04:10:33;24.13;;;17.03;;
38865;SDS011;62686;48.984;8.394;2023-03-01T04:13:02;25.40;;;16.57;;
38865;SDS011;62686;48.984;8.394;2023-03-01T04:15:32;22.37;;;17.57;;
38865;SDS011;62686;48.984;8.394;2023-03-01T04:18:01;23.30;;;16.57;;
38865;SDS011;62686;48.984;8.394;2023-03-01T04:20:30;24.67;;;16.90;;
38865;SDS011;62686;48.984;8.394;2023-03-01T04:23:03;24.33;;;17.20;;
38865;SDS011;62686;48.984;8.394;2023-03-01T04:25:37;26.40;;;18.40;;
38865;SDS011;62686;48.984;8.394;2023-03-01T04:28:07;28.10;;;18.17;;
38865;SDS011;62686;48.984;8.394;2023-03-01T04:30:37;26.03;;;17.60;;
38865;SDS011;62686;48.984;8.394;2023-03-01T04:33:08;25.63;;;17.87;;
38865;SDS011;62686;48.984;8.394;2023-03-01T04:35:37;27.73;;;18.43;;
38865;SDS011;62686;48.984;8.394;2023-03-01T04:38:07;27.70;;;18.90;;
38865;SDS011;62686;48.984;8.394;2023-03-01T04:40:36;27.63;;;20.13;;
38865;SDS011;62686;48.984;8.394;2023-03-01T04:43:04;28.10;;;18.47;;
38865;SDS011;62686;48.984;8.394;2023-03-01T04:45:33;24.63;;;18.10;;
38865;SDS011;62686;48.984;8.394;2023-03-01T04:48:03;26.13;;;18.40;;
38865;SDS011;62686;48.984;8.394;2023-03-01T04:50:32;26.83;;;18.53;;
38865;SDS011;62686;48.984;8.394;2023-03-01T04:53:00;26.17;;;18.60;;
38865;SDS011;62686;48.984;8.394;2023-03-01T04:55:29;28.33;;;18.63;;
38865;SDS011;62686;48.984;8.394;2023-03-01T04:57:57;27.47;;;18.47;;
38865;SDS011;62686;48.984;8.394;2023-03-01T05:00:25;27.10;;;18.00;;
38865;SDS011;62686;48.984;8.394;2023-03-01T05:02:54;26.73;;;17.73;;
38865;SDS011;62686;48.984;8.394;2023-03-01T05:05:26;26.67;;;18.67;;
38865;SDS011;62686;48.984;8.394;2023-03-01T05:07:56;26.23;;;18.30;;
38865;SDS011;62686;48.984;8.394;2023-03-01T05:10:26;26.20;;;19.23;;
38865;SDS011;62686;48.984;8.394;2023-03-01T05:12:56;29.63;;;18.50;;
38865;SDS011;62686;48.984;8.394;2023-03-01T05:15:25;27.73;;;18.33;;
38865;SDS011;62686;48.984;8.394;2023-03-01T05:17:54;26.20;;;18.13;;
38865;SDS011;62686;48.984;8.394;2023-03-01T05:20:28;25.83;;;18.17;;
38865;SDS011;62686;48.984;8.394;2023-03-01T05:22:58;26.73;;;19.47;;
38865;SDS011;62686;48.984;8.394;2023-03-01T05:25:32;28.97;;;19.50;;
38865;SDS011;62686;48.984;8.394;2023-03-01T05:28:01;28.90;;;18.97;;
38865;SDS011;62686;48.984;8.394;2023-03-01T05:30:31;26.43;;;18.77;;
38865;SDS011;62686;48.984;8.394;2023-03-01T05:32:59;26.70;;;19.47;;
38865;SDS011;62686;48.984;8.394;2023-03-01T05:35:29;28.83;;;19.60;;
38865;SDS011;62686;48.984;8.394;2023-03-01T05:37:59;24.57;;;19.00;;
38865;SDS011;62686;48.984;8.394;2023-03-01T05:40:28;27.97;;;18.77;;
38865;SDS011;62686;48.984;8.394;2023-03-01T05:42:56;24.40;;;18.37;;
38865;SDS011;62686;48.984;8.394;2023-03-01T05:45:25;28.07;;;19.70;;
38865;SDS011;62686;48.984;8.394;2023-03-01T05:47:55;30.57;;;19.17;;
38865;SDS011;62686;48.984;8.394;2023-03-01T05:50:24;27.87;;;18.63;;
38865;SDS011;62686;48.984;8.394;2023-03-01T05:52:58;27.97;;;18.63;;
38865;SDS011;62686;48.984;8.394;2023-03-01T05:55:27;26.73;;;18.50;;
38865;SDS011;62686;48.984;8.394;2023-03-01T05:57:58;26.03;;;18.30;;
38865;SDS011;62686;48.984;8.394;2023-03-01T06:00:26;28.63;;;18.20;;
38865;SDS011;62686;48.984;8.394;2023-03-01T06:02:56;25.47;;;18.40;;
38865;SDS011;62686;48.984;8.394;2023-03-01T06:05:26;26.30;;;18.03;;
38865;SDS011;62686;48.984;8.394;2023-03-01T06:07:55;23.73;;;18.27;;
38865;SDS011;62686;48.984;8.394;2023-03-01T06:10:27;25.73;;;18.37;;
38865;SDS011;62686;48.984;8.394;2023-03-01T06:12:56;27.30;;;18.03;;
38865;SDS011;62686;48.984;8.394;2023-03-01T06:15:25;25.67;;;18.10;;
38865;SDS011;62686;48.984;8.394;2023-03-01T06:17:53;29.50;;;19.33;;
38865;SDS011;62686;48.984;8.394;2023-03-01T06:20:25;30.33;;;18.47;;
38865;SDS011;62686;48.984;8.394;2023-03-01T06:22:55;26.03;;;18.17;;
38865;SDS011;62686;48.984;8.394;2023-03-01T06:25:25;25.50;;;19.17;;
38865;SDS011;62686;48.984;8.394;2023-03-01T06:27:54;26.43;;;18.97;;
38865;SDS011;62686;48.984;8.394;2023-03-01T06:30:23;28.83;;;18.80;;
38865;SDS011;62686;48.984;8.394;2023-03-01T06:32:53;25.73;;;18.30;;
38865;SDS011;62686;48.984;8.394;2023-03-01T06:35:27;25.57;;;17.33;;
38865;SDS011;62686;48.984;8.394;2023-03-01T06:37:58;25.70;;;17.97;;
38865;SDS011;62686;48.984;8.394;2023-03-01T06:40:29;25.80;;;18.07;;
38865;SDS011;62686;48.984;8.394;2023-03-01T06:42:58;24.93;;;18.10;;
38865;SDS011;62686;48.984;8.394;2023-03-01T06:45:27;26.27;;;18.03;;
38865;SDS011;62686;48.984;8.394;2023-03-01T06:48:01;27.37;;;17.07;;
38865;SDS011;62686;48.984;8.394;2023-03-01T06:50:31;25.93;;;17.40;;
38865;SDS011;62686;48.984;8.394;2023-03-01T06:52:59;25.70;;;17.23;;
38865;SDS011;62686;48.984;8.394;2023-03-01T06:55:29;23.23;;;17.60;;
38865;SDS011;62686;48.984;8.394;2023-03-01T06:57:58;26.47;;;18.23;;
38865;SDS011;62686;48.984;8.394;2023-03-01T07:00:28;25.60;;;17.67;;
38865;SDS011;62686;48.984;8.394;2023-03-01T07:02:57;25.60;;;17.43;;
38865;SDS011;62686;48.984;8.394;2023-03-01T07:05:26;28.80;;;17.77;;
38865;SDS011;62686;48.984;8.394;2023-03-01T07:07:54;28.37;;;16.87;;
38865;SDS011;62686;48.984;8.394;2023-03-01T07:10:23;25.93;;;17.73;;
38865;SDS011;62686;48.984;8.394;2023-03-01T07:12:55;27.00;;;17.37;;
38865;SDS011;62686;48.984;8.394;2023-03-01T07:15:23;24.23;;;17.67;;
38865;SDS011;62686;48.984;8.394;2023-03-01T07:17:53;23.83;;;16.50;;
38865;SDS011;62686;48.984;8.394;2023-03-01T07:20:21;26.77;;;17.53;;
38865;SDS011;62686;48.984;8.394;2023-03-01T07:22:51;30.30;;;18.57;;
38865;SDS011;62686;48.984;8.394;2023-03-01T07:25:20;27.77;;;17.67;;
38865;SDS011;62686;48.984;8.394;2023-03-01T07:27:49;24.67;;;17.67;;
38865;SDS011;62686;48.984;8.394;2023-03-01T07:30:19;26.70;;;18.37;;
38865;SDS011;62686;48.984;8.394;2023-03-01T07:32:48;26.70;;;18.03;;
38865;SDS011;62686;48.984;8.394;2023-03-01T07:35:16;26.03;;;17.23;;
38865;SDS011;62686;48.984;8.394;2023-03-01T07:37:44;24.90;;;18.20;;
38865;SDS011;62686;48.984;8.394;2023-03-01T07:40:12;29.00;;;17.33;;
38865;SDS011;62686;48.984;8.394;2023-03-01T07:42:41;25.47;;;16.37;;
38865;SDS011;62686;48.984;8.394;2023-03-01T07:45:09;23.73;;;17.30;;
38865;SDS011;62686;48.984;8.394;2023-03-01T07:47:41;21.80;;;16.27;;
38865;SDS011;62686;48.984;8.394;2023-03-01T07:50:10;26.20;;;17.60;;
38865;SDS011;62686;48.984;8.394;2023-03-01T07:52:39;23.10;;;16.00;;
38865;SDS011;62686;48.984;8.394;2023-03-01T07:55:08;25.30;;;17.60;;
38865;SDS011;62686;48.984;8.394;2023-03-01T07:57:36;22.93;;;16.30;;
38865;SDS011;62686;48.984;8.394;2023-03-01T08:00:05;31.27;;;18.03;;
38865;SDS011;62686;48.984;8.394;2023-03-01T08:02:34;24.00;;;16.80;;
38865;SDS011;62686;48.984;8.394;2023-03-01T08:05:04;24.80;;;16.33;;
38865;SDS011;62686;48.984;8.394;2023-03-01T08:07:33;22.30;;;16.47;;
38865;SDS011;62686;48.984;8.394;2023-03-01T08:10:01;24.77;;;17.13;;
38865;SDS011;62686;48.984;8.394;2023-03-01T08:12:29;23.50;;;16.57;;
38865;SDS011;62686;48.984;8.394;2023-03-01T08:14:57;24.17;;;16.23;;
38865;SDS011;62686;48.984;8.394;2023-03-01T08:17:25;27.07;;;16.37;;
38865;SDS011;62686;48.984;8.394;2023-03-01T08:19:54;28.13;;;16.30;;
38865;SDS011;62686;48.984;8.394;2023-03-01T08:22:23;24.40;;;17.27;;
38865;SDS011;62686;48.984;8.394;2023-03-01T08:24:51;24.30;;;16.63;;
38865;SDS011;62686;48.984;8.394;2023-03-01T08:27:22;24.63;;;16.87;;
38865;SDS011;62686;48.984;8.394;2023-03-01T08:29:50;24.33;;;16.43;;
38865;SDS011;62686;48.984;8.394;2023-03-01T08:32:19;23.90;;;16.63;;
38865;SDS011;62686;48.984;8.394;2023-03-01T08:34:47;22.27;;;15.90;;
38865;SDS011;62686;48.984;8.394;2023-03-01T08:37:16;21.40;;;16.37;;
38865;SDS011;62686;48.984;8.394;2023-03-01T08:39:45;23.07;;;16.57;;
38865;SDS011;62686;48.984;8.394;2023-03-01T08:42:14;26.50;;;15.50;;
38865;SDS011;62686;48.984;8.394;2023-03-01T08:44:42;23.40;;;16.33;;
38865;SDS011;62686;48.984;8.394;2023-03-01T08:47:12;22.13;;;15.57;;
38865;SDS011;62686;48.984;8.394;2023-03-01T08:49:41;25.47;;;16.13;;
38865;SDS011;62686;48.984;8.394;2023-03-01T08:52:09;23.00;;;16.20;;
38865;SDS011;62686;48.984;8.394;2023-03-01T08:54:37;23.20;;;15.33;;
38865;SDS011;62686;48.984;8.394;2023-03-01T08:57:07;21.57;;;14.20;;
38865;SDS011;62686;48.984;8.394;2023-03-01T08:59:35;20.23;;;13.57;;
38865;SDS011;62686;48.984;8.394;2023-03-01T09:02:04;21.20;;;13.13;;
38865;SDS011;62686;48.984;8.394;2023-03-01T09:04:33;21.77;;;14.57;;
38865;SDS011;62686;48.984;8.394;2023-03-01T09:07:01;19.40;;;13.77;;
38865;SDS011;62686;48.984;8.394;2023-03-01T09:09:29;18.53;;;13.93;;
38865;SDS011;62686;48.984;8.394;2023-03-01T09:11:57;22.10;;;14.90;;
38865;SDS011;62686;48.984;8.394;2023-03-01T09:14:27;18.30;;;14.50;;
38865;SDS011;62686;48.984;8.394;2023-03-01T09:16:55;21.07;;;14.60;;
38865;SDS011;62686;48.984;8.394;2023-03-01T09:19:24;19.97;;;14.23;;
38865;SDS011;62686;48.984;8.394;2023-03-01T09:21:52;21.63;;;15.20;;
38865;SDS011;62686;48.984;8.394;2023-03-01T09:24:23;17.93;;;13.60;;
38865;SDS011;62686;48.984;8.394;2023-03-01T09:26:54;19.73;;;14.83;;
38865;SDS011;62686;48.984;8.394;2023-03-01T09:29:23;19.63;;;13.73;;
38865;SDS011;62686;48.984;8.394;2023-03-01T09:31:53;19.60;;;13.93;;
38865;SDS011;62686;48.984;8.394;2023-03-01T09:34:22;19.90;;;15.00;;
38865;SDS011;62686;48.984;8.394;2023-03-01T09:36:50;20.97;;;14.60;;
38865;SDS011;62686;48.984;8.394;2023-03-01T09:39:19;19.07;;;14.57;;
38865;SDS011;62686;48.984;8.394;2023-03-01T09:41:49;20.90;;;14.83;;
38865;SDS011;62686;48.984;8.394;2023-03-01T09:44:27;22.50;;;15.60;;
38865;SDS011;62686;48.984;8.394;2023-03-01T09:47:02;22.70;;;15.50;;
38865;SDS011;62686;48.984;8.394;2023-03-01T09:49:31;23.07;;;15.40;;
38865;SDS011;62686;48.984;8.394;2023-03-01T09:52:03;22.03;;;15.40;;
38865;SDS011;62686;48.984;8.394;2023-03-01T09:54:40;24.93;;;16.83;;
38865;SDS011;62686;48.984;8.394;2023-03-01T09:57:15;22.93;;;15.47;;
38865;SDS011;62686;48.984;8.394;2023-03-01T09:59:51;25.97;;;16.50;;
38865;SDS011;62686;48.984;8.394;2023-03-01T10:02:33;22.70;;;15.83;;
38865;SDS011;62686;48.984;8.394;2023-03-01T10:05:11;24.07;;;16.00;;
38865;SDS011;62686;48.984;8.394;2023-03-01T10:07:57;21.60;;;16.13;;
38865;SDS011;62686;48.984;8.394;2023-03-01T10:10:43;24.33;;;16.13;;
38865;SDS011;62686;48.984;8.394;2023-03-01T10:13:15;20.93;;;15.27;;
38865;SDS011;62686;48.984;8.394;2023-03-01T10:15:47;21.60;;;15.80;;
38865;SDS011;62686;48.984;8.394;2023-03-01T10:18:23;21.80;;;15.07;;
38865;SDS011;62686;48.984;8.394;2023-03-01T10:20:55;22.03;;;15.57;;
38865;SDS011;62686;48.984;8.394;2023-03-01T10:23:26;23.67;;;16.47;;
38865;SDS011;62686;48.984;8.394;2023-03-01T10:26:05;20.37;;;15.87;;
38865;SDS011;62686;48.984;8.394;2023-03-01T10:28:42;26.13;;;16.17;;
38865;SDS011;62686;48.984;8.394;2023-03-01T10:31:18;21.60;;;14.97;;
38865;SDS011;62686;48.984;8.394;2023-03-01T10:33:54;19.57;;;15.20;;
38865;SDS011;62686;48.984;8.394;2023-03-01T10:36:23;22.27;;;15.70;;
38865;SDS011;62686;48.984;8.394;2023-03-01T10:38:52;22.30;;;15.80;;
38865;SDS011;62686;48.984;8.394;2023-03-01T10:41:23;25.73;;;17.73;;
38865;SDS011;62686;48.984;8.394;2023-03-01T10:43:53;22.50;;;15.27;;
38865;SDS011;62686;48.984;8.394;2023-03-01T10:46:24;24.47;;;15.87;;
38865;SDS011;62686;48.984;8.394;2023-03-01T10:49:12;24.50;;;16.30;;
38865;SDS011;62686;48.984;8.394;2023-03-01T10:51:43;22.47;;;16.27;;
38865;SDS011;62686;48.984;8.394;2023-03-01T10:54:17;22.70;;;16.03;;
38865;SDS011;62686;48.984;8.394;2023-03-01T10:56:48;21.07;;;15.87;;
38865;SDS011;62686;48.984;8.394;2023-03-01T10:59:22;25.60;;;16.03;;
38865;SDS011;62686;48.984;8.394;2023-03-01T11:02:02;23.40;;;15.50;;
38865;SDS011;62686;48.984;8.394;2023-03-01T11:04:57;21.63;;;15.73;;
38865;SDS011;62686;48.984;8.394;2023-03-01T11:07:27;21.57;;;15.57;;
38865;SDS011;62686;48.984;8.394;2023-03-01T11:09:56;23.30;;;16.03;;
38865;SDS011;62686;48.984;8.394;2023-03-01T11:12:24;24.83;;;15.23;;
38865;SDS011;62686;48.984;8.394;2023-03-01T11:14:56;22.70;;;16.03;;
38865;SDS011;62686;48.984;8.394;2023-03-01T11:17:26;22.03;;;15.27;;
38865;SDS011;62686;48.984;8.394;2023-03-01T11:20:02;23.60;;;16.30;;
38865;SDS011;62686;48.984;8.394;2023-03-01T11:22:45;23.07;;;15.90;;
38865;SDS011;62686;48.984;8.394;2023-03-01T11:25:16;25.47;;;16.33;;
38865;SDS011;62686;48.984;8.394;2023-03-01T11:27:46;27.17;;;16.17;;
38865;SDS011;62686;48.984;8.394;2023-03-01T11:30:16;22.00;;;15.33;;
38865;SDS011;62686;48.984;8.394;2023-03-01T11:32:49;18.43;;;15.10;;
38865;SDS011;62686;48.984;8.394;2023-03-01T11:35:26;21.90;;;15.53;;
38865;SDS011;62686;48.984;8.394;2023-03-01T11:37:58;20.23;;;15.50;;
38865;SDS011;62686;48.984;8.394;2023-03-01T11:40:35;20.50;;;15.40;;
38865;SDS011;62686;48.984;8.394;2023-03-01T11:43:10;19.60;;;14.87;;
38865;SDS011;62686;48.984;8.394;2023-03-01T11:45:49;18.27;;;14.43;;
38865;SDS011;62686;48.984;8.394;2023-03-01T11:48:44;18.90;;;14.63;;
38865;SDS011;62686;48.984;8.394;2023-03-01T11:51:24;18.30;;;14.63;;
38865;SDS011;62686;48.984;8.394;2023-03-01T11:54:02;23.70;;;14.97;;
38865;SDS011;62686;48.984;8.394;2023-03-01T11:56:41;19.27;;;14.17;;
38865;SDS011;62686;48.984;8.394;2023-03-01T11:59:21;17.50;;;14.23;;
38865;SDS011;62686;48.984;8.394;2023-03-01T12:02:12;19.50;;;14.63;;
38865;SDS011;62686;48.984;8.394;2023-03-01T12:05:02;18.40;;;14.73;;
38865;SDS011;62686;48.984;8.394;2023-03-01T12:07:54;18.27;;;14.80;;
38865;SDS011;62686;48.984;8.394;2023-03-01T12:10:30;18.10;;;14.67;;
38865;SDS011;62686;48.984;8.394;2023-03-01T12:13:10;21.50;;;14.90;;
38865;SDS011;62686;48.984;8.394;2023-03-01T12:16:04;20.43;;;14.57;;
38865;SDS011;62686;48.984;8.394;2023-03-01T12:19:15;17.40;;;14.23;;
38865;SDS011;62686;48.984;8.394;2023-03-01T12:28:00;21.20;;;13.95;;
38865;SDS011;62686;48.984;8.394;2023-03-01T12:30:59;20.92;;;14.70;;
38865;SDS011;62686;48.984;8.394;2023-03-01T12:33:53;19.80;;;14.70;;
38865;SDS011;62686;48.984;8.394;2023-03-01T12:36:38;19.95;;;15.13;;
38865;SDS011;62686;48.984;8.394;2023-03-01T12:42:13;18.47;;;14.30;;
38865;SDS011;62686;48.984;8.394;2023-03-01T12:44:54;19.87;;;15.93;;
38865;SDS011;62686;48.984;8.394;2023-03-01T12:50:22;18.93;;;15.03;;
38865;SDS011;62686;48.984;8.394;2023-03-01T12:52:54;17.30;;;14.70;;
38865;SDS011;62686;48.984;8.394;2023-03-01T12:55:26;18.50;;;15.40;;
38865;SDS011;62686;48.984;8.394;2023-03-01T12:58:03;17.40;;;13.97;;
38865;SDS011;62686;48.984;8.394;2023-03-01T13:00:37;20.83;;;14.50;;
38865;SDS011;62686;48.984;8.394;2023-03-01T13:03:22;17.90;;;14.37;;
38865;SDS011;62686;48.984;8.394;2023-03-01T13:06:01;19.67;;;14.68;;
38865;SDS011;62686;48.984;8.394;2023-03-01T13:08:39;19.43;;;14.80;;
38865;SDS011;62686;48.984;8.394;2023-03-01T13:11:15;17.63;;;14.55;;
38865;SDS011;62686;48.984;8.394;2023-03-01T13:13:46;18.77;;;14.50;;
38865;SDS011;62686;48.984;8.394;2023-03-01T13:16:22;18.48;;;14.93;;
38865;SDS011;62686;48.984;8.394;2023-03-01T13:19:10;17.03;;;14.37;;
38865;SDS011;62686;48.984;8.394;2023-03-01T13:21:42;17.63;;;14.87;;
38865;SDS011;62686;48.984;8.394;2023-03-01T13:24:24;18.13;;;14.48;;
38865;SDS011;62686;48.984;8.394;2023-03-01T13:27:09;17.80;;;14.63;;
38865;SDS011;62686;48.984;8.394;2023-03-01T13:29:50;16.73;;;14.03;;
38865;SDS011;62686;48.984;8.394;2023-03-01T13:32:20;19.03;;;14.37;;
38865;SDS011;62686;48.984;8.394;2023-03-01T13:36:50;18.90;;;15.30;;
38865;SDS011;62686;48.984;8.394;2023-03-01T13:38:36;18.70;;;14.17;;
38865;SDS011;62686;48.984;8.394;2023-03-01T13:44:20;17.05;;;13.60;;
38865;SDS011;62686;48.984;8.394;2023-03-01T13:46:56;19.67;;;13.98;;
38865;SDS011;62686;48.984;8.394;2023-03-01T13:49:27;16.73;;;13.68;;
38865;SDS011;62686;48.984;8.394;2023-03-01T13:52:21;16.52;;;13.95;;
38865;SDS011;62686;48.984;8.394;2023-03-01T13:55:17;19.25;;;14.25;;
38865;SDS011;62686;48.984;8.394;2023-03-01T13:57:49;18.13;;;14.38;;
38865;SDS011;62686;48.984;8.394;2023-03-01T14:00:25;17.65;;;13.63;;
38865;SDS011;62686;48.984;8.394;2023-03-01T14:03:04;18.88;;;14.45;;
38865;SDS011;62686;48.984;8.394;2023-03-01T14:05:37;16.27;;;12.82;;
38865;SDS011;62686;48.984;8.394;2023-03-01T14:08:18;17.83;;;12.98;;
38865;SDS011;62686;48.984;8.394;2023-03-01T14:11:02;16.33;;;13.13;;
38865;SDS011;62686;48.984;8.394;2023-03-01T14:13:58;18.10;;;14.38;;
38865;SDS011;62686;48.984;8.394;2023-03-01T14:16:40;18.25;;;13.57;;
38865;SDS011;62686;48.984;8.394;2023-03-01T14:19:16;18.98;;;14.38;;
38865;SDS011;62686;48.984;8.394;2023-03-01T14:21:58;17.55;;;13.43;;
38865;SDS011;62686;48.984;8.394;2023-03-01T14:24:31;18.50;;;13.82;;
38865;SDS011;62686;48.984;8.394;2023-03-01T14:27:09;18.27;;;13.80;;
38865;SDS011;62686;48.984;8.394;2023-03-01T14:29:39;16.55;;;13.82;;
38865;SDS011;62686;48.984;8.394;2023-03-01T14:32:08;18.15;;;13.93;;
38865;SDS011;62686;48.984;8.394;2023-03-01T14:34:43;16.92;;;13.55;;
38865;SDS011;62686;48.984;8.394;2023-03-01T14:37:18;17.55;;;13.07;;
38865;SDS011;62686;48.984;8.394;2023-03-01T14:39:49;16.55;;;13.20;;
38865;SDS011;62686;48.984;8.394;2023-03-01T14:42:17;19.07;;;13.63;;
38865;SDS011;62686;48.984;8.394;2023-03-01T14:44:47;18.33;;;14.87;;
38865;SDS011;62686;48.984;8.394;2023-03-01T14:47:19;20.73;;;13.77;;
38865;SDS011;62686;48.984;8.394;2023-03-01T14:49:56;20.47;;;14.33;;
38865;SDS011;62686;48.984;8.394;2023-03-01T14:52:28;18.93;;;14.87;;
38865;SDS011;62686;48.984;8.394;2023-03-01T14:55:02;20.30;;;15.07;;
38865;SDS011;62686;48.984;8.394;2023-03-01T14:57:33;19.30;;;14.47;;
38865;SDS011;62686;48.984;8.394;2023-03-01T15:00:02;20.83;;;14.33;;
38865;SDS011;62686;48.984;8.394;2023-03-01T15:02:34;19.33;;;15.03;;
38865;SDS011;62686;48.984;8.394;2023-03-01T15:05:07;17.43;;;13.67;;
38865;SDS011;62686;48.984;8.394;2023-03-01T15:07:37;21.10;;;14.60;;
38865;SDS011;62686;48.984;8.394;2023-03-01T15:10:14;20.17;;;14.90;;